createdAt,value
2018-08-13T00:01:17.682Z,14.60
2018-08-13T00:03:45.331Z,14.60
2018-08-13T00:08:32.282Z,14.60
2018-08-13T00:10:59.986Z,14.60
2018-08-13T00:18:22.771Z,14.50
2018-08-13T00:23:18.024Z,14.50
2018-08-13T00:25:45.620Z,14.50
2018-08-13T00:28:13.268Z,14.50
2018-08-13T00:30:40.961Z,14.40
2018-08-13T00:33:09.911Z,14.40
2018-08-13T00:35:37.555Z,14.40
2018-08-13T00:38:05.372Z,14.30
2018-08-13T00:40:32.946Z,14.30
2018-08-13T00:43:00.696Z,14.30
2018-08-13T00:45:28.425Z,14.30
2018-08-13T00:47:56.111Z,14.40
2018-08-13T00:50:23.775Z,14.40
2018-08-13T00:52:51.452Z,14.40
2018-08-13T00:55:19.175Z,14.40
2018-08-13T01:00:18.590Z,14.40
2018-08-13T01:02:46.754Z,14.40
2018-08-13T01:05:15.604Z,14.40
2018-08-13T01:07:43.492Z,14.50
2018-08-13T01:10:14.617Z,14.50
2018-08-13T01:12:42.712Z,14.40
2018-08-13T01:15:12.064Z,14.30
2018-08-13T01:17:41.231Z,14.20
2018-08-13T01:20:10.638Z,14.10
2018-08-13T01:22:38.361Z,13.90
2018-08-13T01:25:07.253Z,13.90
2018-08-13T01:30:02.516Z,13.80
2018-08-13T01:32:30.656Z,13.80
2018-08-13T01:34:58.525Z,13.80
2018-08-13T01:37:27.060Z,13.80
2018-08-13T01:39:55.191Z,13.80
2018-08-13T01:42:23.625Z,13.80
2018-08-13T01:44:51.302Z,13.80
2018-08-13T01:47:19.026Z,13.90
2018-08-13T01:49:46.865Z,13.90
2018-08-13T01:52:14.845Z,14.00
2018-08-13T01:54:42.420Z,14.00
2018-08-13T01:57:10.047Z,14.10
2018-08-13T01:59:37.891Z,14.10
2018-08-13T02:02:05.626Z,14.70
2018-08-13T02:04:33.280Z,14.20
2018-08-13T02:07:01.018Z,14.10
2018-08-13T02:09:32.520Z,14.00
2018-08-13T02:12:00.696Z,13.90
2018-08-13T02:14:28.431Z,13.80
2018-08-13T02:16:56.476Z,13.70
2018-08-13T02:19:24.190Z,13.70
2018-08-13T02:21:51.831Z,13.60
2018-08-13T02:24:19.508Z,13.60
2018-08-13T02:26:47.271Z,13.60
2018-08-13T02:29:14.931Z,13.60
2018-08-13T02:31:42.592Z,13.50
2018-08-13T02:34:10.214Z,13.50
2018-08-13T02:36:37.815Z,13.40
2018-08-13T02:39:07.450Z,13.50
2018-08-13T02:44:03.586Z,13.50
2018-08-13T02:46:31.495Z,13.50
2018-08-13T02:48:59.106Z,13.50
2018-08-13T02:51:26.746Z,13.60
2018-08-13T02:53:54.421Z,13.60
2018-08-13T02:56:22.046Z,13.60
2018-08-13T02:58:49.668Z,13.50
2018-08-13T03:01:17.286Z,13.60
2018-08-13T03:03:44.896Z,13.50
2018-08-13T03:08:40.027Z,13.80
2018-08-13T03:11:07.731Z,13.60
2018-08-13T03:13:35.342Z,13.60
2018-08-13T03:16:03.096Z,13.50
2018-08-13T03:20:58.299Z,13.50
2018-08-13T03:23:25.916Z,13.60
2018-08-13T03:25:53.596Z,13.70
2018-08-13T03:28:21.276Z,13.70
2018-08-13T03:30:48.914Z,13.60
2018-08-13T03:33:16.546Z,13.50
2018-08-13T03:35:44.198Z,13.60
2018-08-13T03:38:11.825Z,13.60
2018-08-13T03:43:07.060Z,13.60
2018-08-13T03:45:34.751Z,13.60
2018-08-13T03:48:02.506Z,13.70
2018-08-13T03:50:30.171Z,13.70
2018-08-13T03:52:57.797Z,13.80
2018-08-13T03:55:25.412Z,13.90
2018-08-13T03:57:53.027Z,13.90
2018-08-13T04:00:20.652Z,14.00
2018-08-13T04:02:48.352Z,14.00
2018-08-13T04:07:43.612Z,14.10
2018-08-13T04:10:12.128Z,14.00
2018-08-13T04:12:42.877Z,14.10
2018-08-13T04:15:12.199Z,14.10
2018-08-13T04:17:40.011Z,14.10
2018-08-13T04:20:09.296Z,14.80
2018-08-13T04:22:36.960Z,14.00
2018-08-13T04:25:05.833Z,14.20
2018-08-13T04:27:33.541Z,14.30
2018-08-13T04:30:01.258Z,14.30
2018-08-13T04:32:28.883Z,14.30
2018-08-13T04:34:56.590Z,14.20
2018-08-13T04:37:24.208Z,14.10
2018-08-13T04:42:19.332Z,14.10
2018-08-13T04:44:46.956Z,14.10
2018-08-13T04:47:14.602Z,14.20
2018-08-13T04:49:42.221Z,14.20
2018-08-13T04:52:09.973Z,14.40
2018-08-13T05:07:37.107Z,14.50
2018-08-13T05:10:05.899Z,14.80
2018-08-13T05:12:33.529Z,14.80
2018-08-13T05:15:01.217Z,14.80
2018-08-13T05:17:28.827Z,14.90
2018-08-13T05:19:56.443Z,14.90
2018-08-13T05:22:24.044Z,14.90
2018-08-13T05:27:19.228Z,15.10
2018-08-13T05:29:46.857Z,15.10
2018-08-13T05:32:14.507Z,15.20
2018-08-13T05:34:42.115Z,15.30
2018-08-13T05:39:37.224Z,15.60
2018-08-13T05:42:04.873Z,15.80
2018-08-13T05:44:32.521Z,16.10
2018-08-13T05:47:00.188Z,16.40
2018-08-13T05:49:27.848Z,16.60
2018-08-13T05:51:55.497Z,16.90
2018-08-13T05:54:23.124Z,17.00
2018-08-13T05:56:50.768Z,17.20
2018-08-13T05:59:18.417Z,17.30
2018-08-13T06:01:46.066Z,17.50
2018-08-13T06:04:13.728Z,17.70
2018-08-13T06:06:41.406Z,17.90
2018-08-13T06:09:10.861Z,18.10
2018-08-13T06:11:38.597Z,18.30
2018-08-13T06:14:06.602Z,18.50
2018-08-13T06:16:34.228Z,18.60
2018-08-13T06:21:29.449Z,19.10
2018-08-13T06:26:24.808Z,19.60
2018-08-13T06:28:52.451Z,19.80
2018-08-13T06:31:20.148Z,20.10
2018-08-13T06:33:47.854Z,20.30
2018-08-13T06:38:43.139Z,20.90
2018-08-13T06:41:10.869Z,21.00
2018-08-13T06:43:38.523Z,21.40
2018-08-13T06:46:06.218Z,21.50
2018-08-13T06:48:33.976Z,21.70
2018-08-13T06:51:01.734Z,22.40
2018-08-13T06:53:29.373Z,22.60
2018-08-13T06:55:57.057Z,22.80
2018-08-13T06:58:24.682Z,22.80
2018-08-13T07:00:52.462Z,23.30
2018-08-13T07:03:20.138Z,23.40
2018-08-13T07:05:47.825Z,23.30
2018-08-13T07:08:15.503Z,23.20
2018-08-13T07:10:43.214Z,23.20
2018-08-13T07:13:10.865Z,23.10
2018-08-13T07:15:38.584Z,23.00
2018-08-13T07:18:06.278Z,22.90
2018-08-13T07:20:34.023Z,22.90
2018-08-13T07:23:01.780Z,23.00
2018-08-13T07:25:29.487Z,23.10
2018-08-13T07:27:57.201Z,23.20
2018-08-13T07:30:24.872Z,23.20
2018-08-13T07:32:52.608Z,23.30
2018-08-13T07:35:20.343Z,23.20
2018-08-13T07:37:48.088Z,23.20
2018-08-13T07:40:16.940Z,23.20
2018-08-13T07:42:45.026Z,23.30
2018-08-13T07:45:12.761Z,23.50
2018-08-13T07:47:40.582Z,23.60
2018-08-13T07:50:10.560Z,23.70
2018-08-13T07:52:38.389Z,23.80
2018-08-13T07:55:06.419Z,23.70
2018-08-13T07:57:34.259Z,23.60
2018-08-13T08:00:02.074Z,23.50
2018-08-13T08:02:29.792Z,23.50
2018-08-13T08:04:57.564Z,23.50
2018-08-13T08:07:25.360Z,23.40
2018-08-13T08:09:53.050Z,23.40
2018-08-13T08:12:20.788Z,23.40
2018-08-13T08:14:49.454Z,23.40
2018-08-13T08:17:18.213Z,23.40
2018-08-13T08:19:46.033Z,23.20
2018-08-13T08:22:13.863Z,23.20
2018-08-13T08:27:09.410Z,23.20
2018-08-13T08:29:38.945Z,23.20
2018-08-13T08:32:07.159Z,23.10
2018-08-13T08:34:35.151Z,22.90
2018-08-13T08:37:02.933Z,22.90
2018-08-13T08:39:58.967Z,22.80
2018-08-13T08:42:42.647Z,22.80
2018-08-13T08:45:39.901Z,22.90
2018-08-13T08:48:32.980Z,23.00
2018-08-13T08:51:27.629Z,23.00
2018-08-13T08:54:19.193Z,23.00
2018-08-13T08:57:11.825Z,22.80
2018-08-13T09:00:05.684Z,22.80
2018-08-13T09:02:58.382Z,22.70
2018-08-13T09:05:26.999Z,22.70
2018-08-13T09:08:12.313Z,22.50
2018-08-13T09:10:43.850Z,22.30
2018-08-13T09:15:41.817Z,22.10
2018-08-13T09:20:54.000Z,22.10
2018-08-13T09:23:33.083Z,22.10
2018-08-13T09:26:12.123Z,22.00
2018-08-13T09:28:51.062Z,21.90
2018-08-13T09:31:28.983Z,21.90
2018-08-13T09:34:41.934Z,21.70
2018-08-13T09:37:09.899Z,21.70
2018-08-13T09:39:37.601Z,21.70
2018-08-13T09:42:05.664Z,21.80
2018-08-13T09:44:33.341Z,21.70
2018-08-13T09:47:01.227Z,21.60
2018-08-13T09:51:56.779Z,21.50
2018-08-13T09:54:24.483Z,21.50
2018-08-13T09:56:52.204Z,21.50
2018-08-13T09:59:19.965Z,21.50
2018-08-13T10:01:47.700Z,21.50
2018-08-13T10:04:24.756Z,21.60
2018-08-13T10:06:52.430Z,21.60
2018-08-13T10:09:20.166Z,21.50
2018-08-13T10:11:47.782Z,21.50
2018-08-13T10:14:15.545Z,21.40
2018-08-13T10:19:10.837Z,21.30
2018-08-13T10:21:38.541Z,21.30
2018-08-13T10:24:06.293Z,21.40
2018-08-13T10:26:34.054Z,21.40
2018-08-13T10:29:01.768Z,21.50
2018-08-13T10:31:29.512Z,21.60
2018-08-13T10:33:57.503Z,21.70
2018-08-13T10:36:25.254Z,21.90
2018-08-13T10:38:52.984Z,22.10
2018-08-13T10:41:20.740Z,22.40
2018-08-13T10:43:48.399Z,22.70
2018-08-13T10:46:16.108Z,22.90
2018-08-13T10:48:43.786Z,23.00
2018-08-13T10:51:11.569Z,23.10
2018-08-13T10:53:39.264Z,22.90
2018-08-13T10:56:07.106Z,23.20
2018-08-13T10:58:34.824Z,22.50
2018-08-13T11:01:02.590Z,22.20
2018-08-13T11:03:30.474Z,22.00
2018-08-13T11:05:58.261Z,21.90
2018-08-13T11:10:53.515Z,21.70
2018-08-13T11:13:21.231Z,21.70
2018-08-13T11:15:48.978Z,21.70
2018-08-13T11:18:16.674Z,21.70
2018-08-13T11:20:44.346Z,21.60
2018-08-13T11:23:12.100Z,21.60
2018-08-13T11:25:39.888Z,21.60
2018-08-13T11:30:35.175Z,21.50
2018-08-13T11:35:30.519Z,21.30
2018-08-13T11:37:58.275Z,21.30
2018-08-13T11:40:25.944Z,21.20
2018-08-13T11:42:53.618Z,21.10
2018-08-13T11:47:48.875Z,21.00
2018-08-13T11:50:18.718Z,20.90
2018-08-13T11:52:47.578Z,20.90
2018-08-13T11:55:15.750Z,20.90
2018-08-13T11:57:43.500Z,20.90
2018-08-13T12:00:12.059Z,20.90
2018-08-13T12:02:39.886Z,21.00
2018-08-13T12:05:10.141Z,21.00
2018-08-13T12:07:37.928Z,21.10
2018-08-13T12:12:33.606Z,21.30
2018-08-13T12:15:01.862Z,21.50
2018-08-13T12:17:29.965Z,21.70
2018-08-13T12:19:57.661Z,22.10
2018-08-13T12:22:25.323Z,22.40
2018-08-13T12:24:53.006Z,22.80
2018-08-13T12:27:20.666Z,23.10
2018-08-13T12:29:48.405Z,23.30
2018-08-13T12:32:16.360Z,23.30
2018-08-13T12:34:44.063Z,24.00
2018-08-13T12:37:12.691Z,23.20
2018-08-13T12:39:40.449Z,23.20
2018-08-13T12:42:09.139Z,23.50
2018-08-13T12:47:06.025Z,23.60
2018-08-13T12:49:33.729Z,23.40
2018-08-13T12:52:01.551Z,23.20
2018-08-13T12:54:29.350Z,23.00
2018-08-13T12:56:57.159Z,22.80
2018-08-13T12:59:24.850Z,22.60
2018-08-13T13:01:52.618Z,22.40
2018-08-13T13:04:20.338Z,22.20
2018-08-13T13:06:48.136Z,22.10
2018-08-13T13:11:43.425Z,22.10
2018-08-13T13:14:11.248Z,22.00
2018-08-13T13:16:38.955Z,22.10
2018-08-13T13:19:07.066Z,22.10
2018-08-13T13:21:34.759Z,22.30
2018-08-13T13:24:03.344Z,22.40
2018-08-13T13:26:30.971Z,22.90
2018-08-13T13:28:58.740Z,23.20
2018-08-13T13:31:26.456Z,23.50
2018-08-13T13:33:54.208Z,24.10
2018-08-13T13:36:21.865Z,24.70
2018-08-13T13:41:17.204Z,26.60
2018-08-13T13:43:44.934Z,27.20
2018-08-13T13:46:12.717Z,27.50
2018-08-13T13:48:40.410Z,27.50
2018-08-13T13:51:08.235Z,27.60
2018-08-13T13:53:35.923Z,27.90
2018-08-13T13:56:03.749Z,27.80
2018-08-13T13:58:31.435Z,27.40
2018-08-13T14:01:00.151Z,26.70
2018-08-13T14:05:55.650Z,25.40
2018-08-13T14:08:23.364Z,24.90
2018-08-13T14:10:55.235Z,24.70
2018-08-13T14:13:25.745Z,24.30
2018-08-13T14:15:53.505Z,24.10
2018-08-13T14:18:21.316Z,24.10
2018-08-13T14:20:49.056Z,23.90
2018-08-13T14:23:16.835Z,23.90
2018-08-13T14:25:44.652Z,23.80
2018-08-13T14:28:12.909Z,23.70
2018-08-13T14:33:08.962Z,23.90
2018-08-13T14:35:36.744Z,23.80
2018-08-13T14:38:04.547Z,23.70
2018-08-13T14:40:32.327Z,23.50
2018-08-13T14:43:00.042Z,23.50
2018-08-13T14:52:50.476Z,23.10
2018-08-13T14:57:46.520Z,22.70
2018-08-13T15:00:20.891Z,22.50
2018-08-13T15:07:45.280Z,22.20
2018-08-13T15:10:14.808Z,22.30
2018-08-13T15:12:43.905Z,19.90
2018-08-13T15:22:40.080Z,22.50
2018-08-13T15:25:07.815Z,22.40
2018-08-13T15:27:36.797Z,22.10
2018-08-13T15:30:07.139Z,22.00
2018-08-13T15:32:34.889Z,21.70
2018-08-13T15:35:02.667Z,21.60
2018-08-13T15:37:30.363Z,21.50
2018-08-13T15:39:58.057Z,21.50
2018-08-13T15:42:25.851Z,21.50
2018-08-13T15:44:53.545Z,21.50
2018-08-13T15:47:21.245Z,21.50
2018-08-13T15:49:48.916Z,21.40
2018-08-13T15:54:44.209Z,21.00
2018-08-13T15:57:12.135Z,20.80
2018-08-13T15:59:39.890Z,20.20
2018-08-13T16:04:35.199Z,18.90
2018-08-13T16:07:05.675Z,18.50
2018-08-13T16:09:33.428Z,18.20
2018-08-13T16:12:01.180Z,18.10
2018-08-13T16:21:52.226Z,18.00
2018-08-13T16:24:19.931Z,18.20
2018-08-13T16:29:15.349Z,18.40
2018-08-13T16:31:43.060Z,18.40
2018-08-13T16:34:10.867Z,18.40
2018-08-13T16:41:35.360Z,18.20
2018-08-13T16:44:03.176Z,18.20
2018-08-13T16:46:31.588Z,17.90
2018-08-13T16:48:59.336Z,17.60
2018-08-13T16:51:27.086Z,17.30
2018-08-13T16:53:54.824Z,17.20
2018-08-13T16:56:22.939Z,17.00
2018-08-13T16:58:50.721Z,16.90
2018-08-13T17:01:18.484Z,16.80
2018-08-13T17:03:46.205Z,16.70
2018-08-13T17:06:14.420Z,16.70
2018-08-13T17:08:42.160Z,16.70
2018-08-13T17:11:09.864Z,16.60
2018-08-13T17:13:37.578Z,16.60
2018-08-13T17:16:06.612Z,16.60
2018-08-13T17:18:34.307Z,16.70
2018-08-13T17:34:01.537Z,16.90
2018-08-13T17:36:29.274Z,17.40
2018-08-13T17:38:56.972Z,17.40
2018-08-13T17:41:24.735Z,17.50
2018-08-13T17:43:52.446Z,17.60
2018-08-13T17:46:20.100Z,17.50
2018-08-13T17:48:47.865Z,17.40
2018-08-13T17:56:10.781Z,17.40
2018-08-13T17:58:38.491Z,17.30
2018-08-13T18:01:06.472Z,17.30
2018-08-13T18:06:01.827Z,17.10
2018-08-13T18:08:29.528Z,17.10
2018-08-13T18:10:57.219Z,17.00
2018-08-13T18:13:24.877Z,16.90
2018-08-13T18:15:52.650Z,16.90
2018-08-13T18:18:20.336Z,16.90
2018-08-13T18:20:47.985Z,16.90
2018-08-13T18:23:15.631Z,16.80
2018-08-13T18:38:37.797Z,16.70
2018-08-13T18:41:05.497Z,16.60
2018-08-13T18:43:33.292Z,16.50
2018-08-13T18:46:00.991Z,16.60
2018-08-13T18:48:28.938Z,16.60
2018-08-13T18:50:56.686Z,16.60
2018-08-13T18:53:24.417Z,16.50
2018-08-13T18:55:52.182Z,16.50
2018-08-13T19:00:50.890Z,16.50
2018-08-13T19:03:19.300Z,16.50
2018-08-13T19:05:47.549Z,16.50
2018-08-13T19:08:16.633Z,16.40
2018-08-13T19:10:44.637Z,16.40
2018-08-13T19:13:12.971Z,16.40
2018-08-13T19:15:40.674Z,16.30
2018-08-13T19:18:09.049Z,16.30
2018-08-13T19:20:38.466Z,16.30
2018-08-13T19:23:06.868Z,16.30
2018-08-13T19:25:35.529Z,16.30
2018-08-13T19:30:31.020Z,16.20
2018-08-13T19:32:59.641Z,16.20
2018-08-13T19:35:27.860Z,16.20
2018-08-13T19:37:55.723Z,16.10
2018-08-13T19:40:25.368Z,16.10
2018-08-13T19:42:53.696Z,16.20
2018-08-13T19:45:23.319Z,16.10
2018-08-13T19:47:52.727Z,16.10
2018-08-13T19:50:20.926Z,16.00
2018-08-13T19:52:50.027Z,15.90
2018-08-13T19:55:18.943Z,15.90
2018-08-13T20:00:18.642Z,15.80
2018-08-13T20:02:49.983Z,15.80
2018-08-13T20:05:19.418Z,15.80
2018-08-13T20:07:47.846Z,15.80
2018-08-13T20:10:16.899Z,15.70
2018-08-13T20:12:45.890Z,15.60
2018-08-13T20:15:14.616Z,15.50
2018-08-13T20:17:44.116Z,15.50
2018-08-13T20:22:42.577Z,15.40
2018-08-13T20:25:12.943Z,15.40
2018-08-13T20:27:40.691Z,15.40
2018-08-13T20:30:12.807Z,15.40
2018-08-13T20:32:41.451Z,15.40
2018-08-13T20:35:09.266Z,15.40
2018-08-13T20:40:09.012Z,15.40
2018-08-13T20:42:37.589Z,15.40
2018-08-13T20:45:09.353Z,15.40
2018-08-13T20:47:37.037Z,15.30
2018-08-13T20:50:08.915Z,15.30
2018-08-13T20:55:08.941Z,15.20
2018-08-13T20:57:37.548Z,15.20
2018-08-13T21:00:09.470Z,15.20
2018-08-13T21:02:39.182Z,15.20
2018-08-13T21:05:07.827Z,15.10
2018-08-13T21:07:36.525Z,15.20
2018-08-13T21:10:06.051Z,15.20
2018-08-13T21:12:34.296Z,15.20
2018-08-13T21:15:05.226Z,15.10
2018-08-13T21:17:34.100Z,15.00
2018-08-13T21:20:01.831Z,15.00
2018-08-13T21:22:30.475Z,15.00
2018-08-13T21:24:58.747Z,14.90
2018-08-13T21:27:26.463Z,14.90
2018-08-13T21:29:54.670Z,14.90
2018-08-13T21:32:22.492Z,15.00
2018-08-13T21:34:50.248Z,15.00
2018-08-13T21:37:19.057Z,15.10
2018-08-13T21:42:15.687Z,15.10
2018-08-13T21:47:12.151Z,15.20
2018-08-13T21:49:40.823Z,15.30
2018-08-13T21:52:09.104Z,15.50
2018-08-13T21:54:37.303Z,15.60
2018-08-13T21:57:05.534Z,15.60
2018-08-13T21:59:33.221Z,15.50
2018-08-13T22:02:00.943Z,15.50
2018-08-13T22:04:28.566Z,15.50
2018-08-13T22:06:56.218Z,15.60
2018-08-13T22:09:23.959Z,15.60
2018-08-13T22:11:51.578Z,15.60
2018-08-13T22:14:19.259Z,15.50
2018-08-13T22:16:46.922Z,15.60
2018-08-13T22:19:14.626Z,15.60
2018-08-13T22:21:42.317Z,15.60
2018-08-13T22:24:21.281Z,15.60
2018-08-13T22:29:16.591Z,15.60
2018-08-13T22:31:44.277Z,15.70
2018-08-13T22:34:11.978Z,15.60
2018-08-13T22:41:35.266Z,15.60
2018-08-13T22:44:02.945Z,15.60
2018-08-13T22:46:30.627Z,15.60
2018-08-13T22:48:58.253Z,15.60
2018-08-13T22:51:25.931Z,15.50
2018-08-13T22:53:53.612Z,15.50
2018-08-13T22:56:21.281Z,15.50
2018-08-13T22:58:48.975Z,15.40
2018-08-13T23:01:16.647Z,15.30
2018-08-13T23:03:44.357Z,15.30
2018-08-13T23:06:12.033Z,15.10
2018-08-13T23:08:39.774Z,15.00
2018-08-13T23:11:07.388Z,14.90
2018-08-13T23:16:02.641Z,15.00
2018-08-13T23:18:30.330Z,15.10
2018-08-13T23:20:57.991Z,15.10
2018-08-13T23:23:25.616Z,15.10
2018-08-13T23:25:53.345Z,15.10
2018-08-13T23:28:20.960Z,15.00
2018-08-13T23:33:16.226Z,14.90
2018-08-13T23:35:44.543Z,14.90
2018-08-13T23:38:12.166Z,14.90
2018-08-13T23:40:39.858Z,14.90
2018-08-13T23:43:07.523Z,15.00
2018-08-13T23:45:35.187Z,15.10
2018-08-13T23:48:02.858Z,15.10
2018-08-13T23:50:30.480Z,15.30
2018-08-13T23:52:59.493Z,15.20
2018-08-13T23:55:31.082Z,15.30
2018-08-13T23:57:59.165Z,15.30
